Time;durP1;ratioP1;P1;durP2;ratioP2;P2;SDS_P1;SDS_P2;PMS_P1;PMS_P2;Temp;Humidity;BMP_temperature;BMP_pressure;BME280_temperature;BME280_humidity;BME280_pressure;Samples;Min_cycle;Max_cycle;Signal;HPM_P1;HPM_P2
2022/10/11 00:00:53;;;;;;;2.88;2.38;;;18.10;94.40;;;;;;5047851;28;20549;-70
2022/10/11 00:03:20;;;;;;;3.53;2.33;;;18.10;94.40;;;;;;5047890;28;20187;-71
2022/10/11 00:05:45;;;;;;;3.70;2.40;;;18.10;94.50;;;;;;5070085;28;20190;-71
2022/10/11 00:08:12;;;;;;;2.95;2.58;;;18.10;94.50;;;;;;5054114;28;20185;-69
2022/10/11 00:10:39;;;;;;;2.95;2.50;;;18.10;94.40;;;;;;5054272;28;20201;-70
2022/10/11 00:13:06;;;;;;;3.40;2.30;;;18.10;94.50;;;;;;5070913;28;20174;-70
2022/10/11 00:15:32;;;;;;;3.45;2.25;;;18.10;94.50;;;;;;5054323;28;20196;-71
2022/10/11 00:17:58;;;;;;;3.75;2.60;;;18.10;94.50;;;;;;5054091;28;20170;-70
2022/10/11 00:20:25;;;;;;;3.00;1.95;;;18.10;94.40;;;;;;5054217;28;20276;-71
2022/10/11 00:22:51;;;;;;;2.63;2.28;;;18.10;94.50;;;;;;5053966;28;20209;-71
2022/10/11 00:25:18;;;;;;;2.90;2.17;;;18.10;94.60;;;;;;5070703;28;20272;-70
2022/10/11 00:27:44;;;;;;;3.33;2.30;;;18.10;94.60;;;;;;5070683;28;20272;-71
2022/10/11 00:30:11;;;;;;;2.95;2.35;;;18.10;94.50;;;;;;5054162;28;20677;-70
2022/10/11 00:32:38;;;;;;;2.65;2.42;;;18.10;94.60;;;;;;5054199;28;20660;-71
2022/10/11 00:35:06;;;;;;;3.78;2.40;;;18.10;94.50;;;;;;5050777;28;20193;-70
2022/10/11 00:37:37;;;;;;;3.35;2.20;;;18.10;94.40;;;;;;5043822;28;20184;-71
2022/10/11 00:40:09;;;;;;;4.05;2.35;;;18.10;94.50;;;;;;5030672;28;20233;-70
2022/10/11 00:42:35;;;;;;;2.85;2.20;;;18.10;94.40;;;;;;5013932;28;20207;-71
2022/10/11 00:45:39;;;;;;;3.25;2.50;;;18.10;94.50;;;;;;5030526;28;20195;-71
2022/10/11 00:48:18;;;;;;;2.83;1.80;;;18.10;94.60;;;;;;5032028;28;20187;-70
2022/10/11 00:50:44;;;;;;;2.92;2.15;;;18.10;94.60;;;;;;5032855;28;20168;-70
2022/10/11 00:53:11;;;;;;;3.38;2.20;;;18.10;94.50;;;;;;5030705;28;20187;-71
2022/10/11 00:55:49;;;;;;;5.82;2.33;;;18.10;94.60;;;;;;5047057;28;20183;-70
2022/10/11 00:58:18;;;;;;;2.83;2.13;;;18.10;94.60;;;;;;5047196;28;20183;-70
2022/10/11 01:00:44;;;;;;;3.10;2.28;;;18.10;94.50;;;;;;5034087;28;20206;-70
2022/10/11 01:03:10;;;;;;;3.53;1.95;;;18.10;94.50;;;;;;5050875;28;20234;-70
2022/10/11 01:05:38;;;;;;;3.35;2.13;;;18.10;94.40;;;;;;5020760;28;20269;-70
2022/10/11 01:08:07;;;;;;;3.05;1.92;;;18.10;94.50;;;;;;5054189;28;20210;-70
2022/10/11 01:10:32;;;;;;;2.80;1.95;;;18.10;94.50;;;;;;5053938;28;20433;-70
2022/10/11 01:13:34;;;;;;;3.35;2.03;;;18.10;94.50;;;;;;5054119;28;20281;-70
2022/10/11 01:16:27;;;;;;;2.33;2.13;;;18.10;94.50;;;;;;5070558;28;20170;-70
2022/10/11 01:19:49;;;;;;;3.50;2.20;;;18.10;94.60;;;;;;5053953;28;20182;-70
2022/10/11 01:22:57;;;;;;;2.92;2.00;;;18.10;94.60;;;;;;5053694;28;20218;-70
2022/10/11 01:25:31;;;;;;;2.50;2.00;;;18.00;94.40;;;;;;5037201;28;20194;-71
2022/10/11 01:28:32;;;;;;;2.40;2.20;;;18.10;94.50;;;;;;5053765;28;20192;-70
2022/10/11 01:31:13;;;;;;;3.25;2.03;;;18.10;94.60;;;;;;5066210;28;20207;-71
2022/10/11 01:33:48;;;;;;;2.45;2.20;;;18.10;94.60;;;;;;5053246;28;20186;-71
2022/10/11 01:36:39;;;;;;;2.15;1.95;;;18.10;94.60;;;;;;5035382;28;20697;-71
2022/10/11 01:39:41;;;;;;;3.03;2.08;;;18.00;94.60;;;;;;5034818;28;20195;-71
2022/10/11 01:42:11;;;;;;;2.42;1.90;;;18.10;94.60;;;;;;5023314;28;20219;-71
2022/10/11 01:44:41;;;;;;;3.45;2.10;;;18.10;94.70;;;;;;5050064;28;20632;-71
2022/10/11 01:47:07;;;;;;;2.53;2.10;;;18.10;94.60;;;;;;5034421;28;20176;-71
2022/10/11 01:49:32;;;;;;;4.50;2.20;;;18.10;94.60;;;;;;5049791;28;20222;-70
2022/10/11 01:52:04;;;;;;;3.15;2.03;;;18.10;94.60;;;;;;5033631;28;20203;-70
2022/10/11 01:54:42;;;;;;;2.08;1.85;;;18.10;94.60;;;;;;5034498;28;20179;-71
2022/10/11 01:57:28;;;;;;;3.38;2.00;;;18.10;94.60;;;;;;5034370;28;20190;-71
2022/10/11 02:00:10;;;;;;;2.72;1.90;;;18.10;94.60;;;;;;5033080;28;20191;-71
2022/10/11 02:03:12;;;;;;;4.03;1.92;;;18.10;94.60;;;;;;5033488;28;20269;-70
2022/10/11 02:06:05;;;;;;;2.33;1.75;;;18.10;94.60;;;;;;5041078;28;20186;-70
2022/10/11 02:09:01;;;;;;;2.03;1.70;;;18.00;94.60;;;;;;5049059;28;20209;-71
2022/10/11 02:11:32;;;;;;;2.17;1.98;;;18.10;94.60;;;;;;5059063;28;20217;-71
2022/10/11 02:14:12;;;;;;;2.40;2.03;;;18.10;94.60;;;;;;5052766;28;20658;-71
2022/10/11 02:17:06;;;;;;;3.10;1.98;;;18.00;94.60;;;;;;5061101;28;20175;-71
2022/10/11 02:19:39;;;;;;;1.85;1.65;;;18.00;94.60;;;;;;5056909;28;20207;-70
2022/10/11 02:22:16;;;;;;;2.78;1.88;;;18.00;94.70;;;;;;5068361;22;20221;-67
2022/10/11 02:24:49;;;;;;;3.17;1.80;;;18.10;94.70;;;;;;5080957;28;20178;-66
2022/10/11 02:27:20;;;;;;;2.63;1.90;;;18.00;94.60;;;;;;5089065;28;20284;-67
2022/10/11 02:29:50;;;;;;;2.03;1.80;;;18.00;94.60;;;;;;5072464;28;20217;-67
2022/10/11 02:32:18;;;;;;;2.30;2.00;;;18.10;95.00;;;;;;5072385;28;20205;-67
2022/10/11 02:34:52;;;;;;;2.35;1.80;;;18.00;94.50;;;;;;5047477;28;20233;-67
2022/10/11 02:37:53;;;;;;;1.90;1.70;;;18.00;94.60;;;;;;5055351;28;20269;-67
2022/10/11 02:40:31;;;;;;;2.03;1.73;;;18.00;94.60;;;;;;5049925;28;20212;-67
2022/10/11 02:43:22;;;;;;;2.30;2.10;;;18.00;94.60;;;;;;5072440;28;20214;-67
2022/10/11 02:46:00;;;;;;;2.00;1.77;;;18.00;94.60;;;;;;5055324;28;20273;-67
2022/10/11 02:48:28;;;;;;;2.20;1.83;;;18.00;94.60;;;;;;5071967;28;20260;-67
2022/10/11 02:50:56;;;;;;;1.83;1.70;;;18.00;94.50;;;;;;5073515;28;20174;-66
2022/10/11 02:53:23;;;;;;;2.10;1.90;;;18.00;94.60;;;;;;5088828;28;20208;-67
2022/10/11 02:55:52;;;;;;;3.00;2.00;;;18.00;94.60;;;;;;5055108;28;20189;-67
2022/10/11 02:58:18;;;;;;;2.53;2.03;;;18.00;94.60;;;;;;5055346;28;20182;-66
2022/10/11 03:00:45;;;;;;;2.72;1.90;;;18.00;94.70;;;;;;5055378;28;20185;-67
2022/10/11 03:03:11;;;;;;;2.00;1.85;;;18.10;94.70;;;;;;5088604;28;20225;-66
2022/10/11 03:05:40;;;;;;;2.22;1.98;;;18.00;94.60;;;;;;5047035;28;20649;-67
2022/10/11 03:08:13;;;;;;;1.85;1.70;;;18.00;94.60;;;;;;5059494;28;20301;-67
2022/10/11 03:10:40;;;;;;;2.08;1.90;;;18.00;94.70;;;;;;5051754;28;20174;-67
2022/10/11 03:13:06;;;;;;;3.15;1.75;;;18.10;94.80;;;;;;5052567;28;20198;-67
2022/10/11 03:15:33;;;;;;;2.95;1.80;;;18.00;94.70;;;;;;5034852;28;20217;-68
2022/10/11 03:17:58;;;;;;;3.80;1.73;;;18.00;94.70;;;;;;5051401;28;20187;-68
2022/10/11 03:20:25;;;;;;;1.98;1.75;;;18.10;94.70;;;;;;5051508;28;20202;-66
2022/10/11 03:22:50;;;;;;;2.10;1.80;;;18.00;94.80;;;;;;5050972;28;20221;-68
2022/10/11 03:25:17;;;;;;;3.50;1.85;;;18.00;94.70;;;;;;5051226;28;20191;-68
2022/10/11 03:27:42;;;;;;;2.65;1.77;;;18.00;94.70;;;;;;5068400;28;20190;-68
2022/10/11 03:30:10;;;;;;;3.45;2.17;;;18.00;94.80;;;;;;5051452;28;20256;-67
2022/10/11 03:32:36;;;;;;;2.08;1.88;;;18.00;94.80;;;;;;5052549;28;20603;-66
2022/10/11 03:35:02;;;;;;;2.35;1.92;;;18.10;94.80;;;;;;5054517;28;20663;-66
2022/10/11 03:37:28;;;;;;;2.80;1.88;;;18.00;94.70;;;;;;5047691;28;20187;-66
2022/10/11 03:39:53;;;;;;;3.33;1.70;;;18.00;94.70;;;;;;5068011;28;20189;-65
2022/10/11 03:42:19;;;;;;;2.20;1.80;;;18.00;94.70;;;;;;5051502;28;20245;-67
2022/10/11 03:44:48;;;;;;;2.15;1.95;;;18.00;94.70;;;;;;5051126;28;20218;-68
2022/10/11 03:47:14;;;;;;;2.05;1.80;;;18.00;94.80;;;;;;5051188;28;20218;-67
2022/10/11 03:49:40;;;;;;;3.38;2.17;;;18.00;94.70;;;;;;5034416;28;20228;-66
2022/10/11 03:52:06;;;;;;;2.92;2.00;;;18.00;94.80;;;;;;5067807;28;20297;-67
2022/10/11 03:54:32;;;;;;;3.10;1.83;;;18.00;94.80;;;;;;5034099;28;20187;-67
2022/10/11 03:56:57;;;;;;;1.85;1.67;;;18.00;94.90;;;;;;5052424;28;20220;-67
2022/10/11 03:59:23;;;;;;;2.03;1.77;;;18.00;94.90;;;;;;5051064;28;20190;-67
2022/10/11 04:01:49;;;;;;;3.33;2.13;;;18.00;94.80;;;;;;5050894;28;20248;-68
2022/10/11 04:04:15;;;;;;;2.10;1.90;;;18.00;94.80;;;;;;5046839;28;20197;-67
2022/10/11 04:06:41;;;;;;;2.42;1.88;;;18.00;94.80;;;;;;5070717;28;20187;-67
2022/10/11 04:09:06;;;;;;;2.15;1.88;;;18.00;94.80;;;;;;5070816;28;20313;-68
2022/10/11 04:11:32;;;;;;;1.70;1.60;;;18.00;94.90;;;;;;5070871;28;20213;-68
2022/10/11 04:13:58;;;;;;;3.30;1.73;;;18.00;94.90;;;;;;5054196;28;20235;-66
2022/10/11 04:16:24;;;;;;;3.42;2.10;;;18.10;94.90;;;;;;5037111;28;20179;-66
2022/10/11 04:18:49;;;;;;;2.47;2.28;;;18.00;94.90;;;;;;5032117;28;20306;-67
2022/10/11 04:21:15;;;;;;;3.22;1.90;;;18.00;94.90;;;;;;5014257;28;20183;-68
2022/10/11 04:23:41;;;;;;;3.88;1.63;;;18.00;94.90;;;;;;5014359;28;20194;-68
2022/10/11 04:26:07;;;;;;;2.30;2.10;;;18.00;94.90;;;;;;5014495;28;20186;-68
2022/10/11 04:28:34;;;;;;;2.25;1.63;;;18.00;94.90;;;;;;5030682;28;20222;-67
2022/10/11 04:31:00;;;;;;;2.63;1.63;;;18.00;94.80;;;;;;5014191;28;20198;-68
2022/10/11 04:33:26;;;;;;;2.20;1.65;;;18.00;94.90;;;;;;5014449;28;20179;-69
2022/10/11 04:35:56;;;;;;;2.33;1.90;;;18.00;94.90;;;;;;5060564;28;20280;-68
2022/10/11 04:38:23;;;;;;;1.85;1.63;;;18.00;94.90;;;;;;5069024;28;20181;-68
2022/10/11 04:40:48;;;;;;;2.22;1.75;;;18.00;94.90;;;;;;5058219;28;20170;-69
2022/10/11 04:43:15;;;;;;;2.20;1.85;;;18.00;94.90;;;;;;5047339;28;20272;-67
2022/10/11 04:45:42;;;;;;;2.35;1.90;;;18.00;94.90;;;;;;5055474;28;20179;-67
2022/10/11 04:48:08;;;;;;;1.83;1.60;;;18.00;94.90;;;;;;5054269;28;20186;-67
2022/10/11 04:50:34;;;;;;;2.50;1.70;;;18.00;94.90;;;;;;5037873;28;20233;-67
2022/10/11 04:53:00;;;;;;;2.38;1.88;;;18.00;94.90;;;;;;5050834;28;20213;-67
2022/10/11 04:55:25;;;;;;;1.98;1.70;;;18.00;95.00;;;;;;5035199;28;20652;-68
2022/10/11 04:57:51;;;;;;;2.60;2.13;;;18.00;95.00;;;;;;5034314;28;20187;-68
2022/10/11 05:00:17;;;;;;;3.55;2.08;;;18.00;95.00;;;;;;5018044;28;20530;-67
2022/10/11 05:02:43;;;;;;;2.72;1.85;;;18.00;95.00;;;;;;5034332;28;20302;-69
2022/10/11 05:05:09;;;;;;;3.05;1.70;;;18.00;95.10;;;;;;5051528;28;20224;-68
2022/10/11 05:07:35;;;;;;;4.38;2.40;;;18.00;95.00;;;;;;5049272;28;20272;-68
2022/10/11 05:10:01;;;;;;;5.25;2.20;;;18.00;95.10;;;;;;5074260;28;20234;-67
2022/10/11 05:12:27;;;;;;;2.90;2.13;;;18.00;95.00;;;;;;5073281;28;20206;-67
2022/10/11 05:14:52;;;;;;;2.30;2.10;;;18.00;95.00;;;;;;5073413;28;20174;-68
2022/10/11 05:17:18;;;;;;;2.97;2.15;;;18.00;95.10;;;;;;5057049;28;20181;-67
2022/10/11 05:19:44;;;;;;;5.18;2.33;;;18.00;95.20;;;;;;5073087;28;20178;-68
2022/10/11 05:22:10;;;;;;;2.05;1.90;;;18.00;95.30;;;;;;5056395;28;20242;-68
2022/10/11 05:24:35;;;;;;;2.72;1.95;;;18.00;95.30;;;;;;5016804;28;20674;-67
2022/10/11 05:27:01;;;;;;;2.15;1.88;;;18.00;95.30;;;;;;5016491;28;20188;-68
2022/10/11 05:29:27;;;;;;;2.92;2.25;;;18.00;95.20;;;;;;5016770;28;20215;-67
2022/10/11 05:31:52;;;;;;;2.75;2.08;;;18.00;95.30;;;;;;5033345;28;20293;-67
2022/10/11 05:34:18;;;;;;;2.30;1.85;;;18.00;95.30;;;;;;5038755;28;20190;-67
2022/10/11 05:36:44;;;;;;;2.88;2.17;;;18.00;95.30;;;;;;5063339;28;20638;-67
2022/10/11 05:39:10;;;;;;;2.33;2.10;;;18.00;95.30;;;;;;5073205;28;20193;-68
2022/10/11 05:41:35;;;;;;;3.00;2.10;;;18.00;95.30;;;;;;5056268;28;20205;-68
2022/10/11 05:44:01;;;;;;;3.20;1.90;;;18.00;95.30;;;;;;5072788;28;20194;-68
2022/10/11 05:46:27;;;;;;;2.78;2.10;;;18.00;95.40;;;;;;5056208;28;20185;-68
2022/10/11 05:48:53;;;;;;;2.78;2.10;;;18.00;95.50;;;;;;5072505;28;20228;-68
2022/10/11 05:51:18;;;;;;;2.55;2.35;;;18.00;95.40;;;;;;5072735;28;20182;-67
2022/10/11 05:53:44;;;;;;;3.67;2.38;;;18.00;95.40;;;;;;5072885;28;20235;-67
2022/10/11 05:56:23;;;;;;;4.00;2.40;;;18.00;95.40;;;;;;5055995;28;20185;-67
2022/10/11 05:58:50;;;;;;;3.80;2.15;;;18.00;95.40;;;;;;5056094;28;20205;-66
2022/10/11 06:01:25;;;;;;;3.60;2.30;;;18.00;95.40;;;;;;5055912;28;20241;-67
2022/10/11 06:03:51;;;;;;;3.05;2.58;;;18.00;95.30;;;;;;5040982;28;20192;-68
2022/10/11 06:06:18;;;;;;;2.80;2.22;;;18.00;95.30;;;;;;5060317;28;20190;-68
2022/10/11 06:08:44;;;;;;;2.83;2.38;;;18.00;95.50;;;;;;5069977;28;20209;-66
2022/10/11 06:11:21;;;;;;;3.03;2.28;;;18.00;95.50;;;;;;5072380;28;20192;-68
2022/10/11 06:13:47;;;;;;;4.55;2.28;;;18.00;95.60;;;;;;5072534;28;20185;-68
2022/10/11 06:16:13;;;;;;;3.75;2.20;;;18.00;95.60;;;;;;5073278;28;20186;-68
2022/10/11 06:18:39;;;;;;;2.85;2.47;;;18.00;95.50;;;;;;5055429;28;20217;-68
2022/10/11 06:21:05;;;;;;;3.88;2.40;;;18.00;95.60;;;;;;5071992;28;20181;-68
2022/10/11 06:23:31;;;;;;;2.65;2.40;;;18.00;95.60;;;;;;5055478;28;20197;-68
2022/10/11 06:25:59;;;;;;;2.47;2.28;;;18.00;95.60;;;;;;5055033;28;20189;-67
2022/10/11 06:28:27;;;;;;;3.50;2.38;;;18.00;95.70;;;;;;5055380;28;20190;-68
2022/10/11 06:30:55;;;;;;;3.35;2.40;;;18.00;95.50;;;;;;5072145;28;20178;-68
2022/10/11 06:33:21;;;;;;;4.97;2.63;;;18.00;95.60;;;;;;5062206;28;20204;-68
2022/10/11 06:35:47;;;;;;;4.30;2.75;;;18.00;95.80;;;;;;5059830;28;20251;-68
2022/10/11 06:38:13;;;;;;;4.85;2.78;;;18.00;96.40;;;;;;5071645;28;20182;-67
2022/10/11 06:40:38;;;;;;;3.65;2.53;;;18.00;95.80;;;;;;5071881;28;20201;-67
2022/10/11 06:43:04;;;;;;;4.03;2.55;;;18.00;96.00;;;;;;5071651;28;20217;-68
2022/10/11 06:45:30;;;;;;;5.13;2.80;;;18.00;95.70;;;;;;5071528;28;20217;-68
2022/10/11 06:47:56;;;;;;;3.88;2.72;;;18.00;95.70;;;;;;5071451;28;20190;-67
2022/10/11 06:50:22;;;;;;;5.35;2.95;;;18.00;95.80;;;;;;5054838;28;20217;-67
2022/10/11 06:52:47;;;;;;;4.13;2.60;;;18.00;95.70;;;;;;5071555;28;20285;-67
2022/10/11 06:55:13;;;;;;;4.75;2.75;;;18.00;95.80;;;;;;5071524;28;20186;-68
2022/10/11 06:57:39;;;;;;;4.00;3.03;;;18.00;95.80;;;;;;5070815;28;20189;-68
2022/10/11 07:00:06;;;;;;;3.03;2.40;;;18.00;96.00;;;;;;5054591;28;20306;-67
2022/10/11 07:02:32;;;;;;;4.35;2.72;;;18.00;96.00;;;;;;5071058;28;20205;-68
2022/10/11 07:04:57;;;;;;;4.30;2.90;;;18.00;96.00;;;;;;5046068;28;20238;-68
2022/10/11 07:07:23;;;;;;;3.70;3.08;;;18.00;96.00;;;;;;5052806;28;20183;-67
2022/10/11 07:09:49;;;;;;;5.25;3.05;;;18.10;96.00;;;;;;5031292;28;20279;-67
2022/10/11 07:12:15;;;;;;;3.67;2.75;;;18.00;96.10;;;;;;5050550;28;20203;-67
2022/10/11 07:14:41;;;;;;;3.25;2.45;;;18.00;95.90;;;;;;5047801;28;20195;-68
2022/10/11 07:17:07;;;;;;;2.85;2.55;;;18.00;96.00;;;;;;5014461;28;20278;-68
2022/10/11 07:19:33;;;;;;;3.78;2.40;;;18.00;96.00;;;;;;5014890;28;20206;-68
2022/10/11 07:21:58;;;;;;;3.20;2.63;;;18.00;96.00;;;;;;5047374;28;20215;-68
2022/10/11 07:24:24;;;;;;;5.40;2.60;;;18.00;96.10;;;;;;5014569;28;20277;-68
2022/10/11 07:26:50;;;;;;;5.85;2.80;;;18.10;96.10;;;;;;5047321;28;20418;-68
2022/10/11 07:29:16;;;;;;;3.97;2.67;;;18.10;96.00;;;;;;5014570;28;20222;-67
2022/10/11 07:31:43;;;;;;;4.05;2.70;;;18.00;96.00;;;;;;5014250;28;20207;-68
2022/10/11 07:34:09;;;;;;;4.25;2.72;;;18.00;96.10;;;;;;5015674;28;20210;-67
2022/10/11 07:36:35;;;;;;;3.00;2.78;;;18.00;95.90;;;;;;5052045;28;20194;-68
2022/10/11 07:39:05;;;;;;;5.32;2.78;;;18.10;96.00;;;;;;5030849;28;20183;-68
2022/10/11 07:41:30;;;;;;;4.05;3.25;;;18.00;96.00;;;;;;5014346;28;20274;-67
2022/10/11 07:43:56;;;;;;;4.15;2.92;;;18.00;96.00;;;;;;5032053;28;20274;-68
2022/10/11 07:46:22;;;;;;;3.95;2.90;;;18.00;96.00;;;;;;5046992;28;20191;-67
2022/10/11 07:48:49;;;;;;;3.55;2.80;;;18.10;96.20;;;;;;5047284;28;20215;-66
2022/10/11 07:51:19;;;;;;;4.10;3.03;;;18.00;96.10;;;;;;5014406;28;20274;-68
2022/10/11 07:53:55;;;;;;;3.72;2.95;;;18.10;96.30;;;;;;5047241;28;20183;-68
2022/10/11 07:56:24;;;;;;;3.80;3.03;;;18.00;96.10;;;;;;5048669;28;20214;-68
2022/10/11 07:58:53;;;;;;;5.90;2.72;;;18.00;96.10;;;;;;5050470;28;20190;-68
2022/10/11 08:01:20;;;;;;;4.47;2.90;;;18.00;96.20;;;;;;5051517;28;20186;-67
2022/10/11 08:03:47;;;;;;;3.53;2.55;;;18.00;96.10;;;;;;5032366;28;20183;-67
2022/10/11 08:06:18;;;;;;;4.47;3.17;;;18.00;96.10;;;;;;5041093;28;20182;-67
2022/10/11 08:08:43;;;;;;;4.85;3.00;;;18.00;96.10;;;;;;5051927;28;20221;-68
2022/10/11 08:11:17;;;;;;;3.28;2.60;;;18.10;96.30;;;;;;5067061;28;20201;-68
2022/10/11 08:13:43;;;;;;;4.70;2.60;;;18.10;96.10;;;;;;5051870;28;20180;-67
2022/10/11 08:16:11;;;;;;;3.38;2.80;;;18.10;96.20;;;;;;5050692;28;20189;-68
2022/10/11 08:18:37;;;;;;;3.25;2.40;;;18.10;96.30;;;;;;5050265;28;20277;-68
2022/10/11 08:21:08;;;;;;;2.75;2.42;;;18.00;96.00;;;;;;5067014;28;20284;-69
2022/10/11 08:23:34;;;;;;;3.50;2.58;;;18.10;96.20;;;;;;5061161;22;20234;-70
2022/10/11 08:26:00;;;;;;;3.28;2.58;;;18.10;96.00;;;;;;5066303;28;20181;-71
2022/10/11 08:28:26;;;;;;;3.38;2.50;;;18.10;96.10;;;;;;5050140;28;20190;-71
2022/10/11 08:30:54;;;;;;;3.83;2.95;;;18.10;96.10;;;;;;5050429;28;20186;-71
2022/10/11 08:33:23;;;;;;;3.85;2.53;;;18.10;96.10;;;;;;5046884;28;20195;-71
2022/10/11 08:35:51;;;;;;;3.05;2.50;;;18.10;96.10;;;;;;5021997;28;20252;-71
2022/10/11 08:38:18;;;;;;;3.20;2.72;;;18.10;96.30;;;;;;5013716;28;20266;-69
2022/10/11 08:40:56;;;;;;;5.15;2.78;;;18.10;96.20;;;;;;5014908;28;20196;-72
2022/10/11 08:43:47;;;;;;;3.83;2.60;;;18.10;96.20;;;;;;5026900;28;20211;-71
2022/10/11 08:46:14;;;;;;;3.13;2.30;;;18.10;96.10;;;;;;4993953;28;20188;-70
2022/10/11 08:48:45;;;;;;;4.00;2.63;;;18.10;96.10;;;;;;5026862;28;20227;-71
2022/10/11 08:51:30;;;;;;;2.53;2.33;;;18.10;96.30;;;;;;5010358;28;20194;-71
2022/10/11 08:54:16;;;;;;;3.00;2.47;;;18.10;96.50;;;;;;5027113;28;20216;-71
2022/10/11 08:56:44;;;;;;;4.53;3.10;;;18.10;96.20;;;;;;5026699;28;20199;-71
2022/10/11 08:59:10;;;;;;;3.33;2.80;;;18.10;96.50;;;;;;5026888;28;20208;-71
2022/10/11 09:01:54;;;;;;;4.75;2.92;;;18.10;96.00;;;;;;5010410;28;20208;-71
2022/10/11 09:04:19;;;;;;;2.67;2.47;;;18.10;95.90;;;;;;5027170;28;20192;-71
2022/10/11 09:07:05;;;;;;;2.95;2.50;;;18.10;96.10;;;;;;5003457;28;20275;-71
2022/10/11 09:09:39;;;;;;;3.97;2.50;;;18.10;96.20;;;;;;5040119;28;20239;-71
2022/10/11 09:12:22;;;;;;;2.75;2.50;;;18.10;96.20;;;;;;5030440;28;20749;-71
2022/10/11 09:15:26;;;;;;;4.57;2.58;;;18.10;96.10;;;;;;5030745;28;20171;-71
2022/10/11 09:18:41;;;;;;;3.55;2.72;;;18.10;96.20;;;;;;5030112;28;20175;-70
2022/10/11 09:21:40;;;;;;;3.55;2.53;;;18.10;96.10;;;;;;5016101;28;20278;-70
2022/10/11 09:24:46;;;;;;;3.90;2.42;;;18.20;96.30;;;;;;5033880;28;20179;-71
2022/10/11 09:27:30;;;;;;;4.97;2.53;;;18.10;96.20;;;;;;5034007;28;20617;-69
2022/10/11 09:30:08;;;;;;;2.60;2.33;;;18.10;96.10;;;;;;5017286;28;20207;-71
2022/10/11 09:32:41;;;;;;;5.32;2.80;;;18.20;96.20;;;;;;5033654;28;20301;-69
2022/10/11 09:35:20;;;;;;;3.83;2.88;;;18.20;96.30;;;;;;5014018;28;20188;-71
2022/10/11 09:37:59;;;;;;;4.03;2.78;;;18.10;96.30;;;;;;5023061;28;20186;-71
2022/10/11 09:40:43;;;;;;;3.72;2.72;;;18.10;96.60;;;;;;5033453;28;20191;-71
2022/10/11 09:43:09;;;;;;;3.55;2.95;;;18.20;96.50;;;;;;5016891;28;20211;-70
2022/10/11 09:45:35;;;;;;;4.68;2.95;;;18.20;96.70;;;;;;5033525;28;20172;-70
2022/10/11 09:48:04;;;;;;;2.72;2.50;;;18.20;96.50;;;;;;5013321;28;20196;-71
2022/10/11 09:50:31;;;;;;;3.72;2.67;;;18.20;96.70;;;;;;5003451;28;20207;-71
2022/10/11 09:53:03;;;;;;;4.32;2.70;;;18.20;96.60;;;;;;5022193;28;20330;-70
2022/10/11 09:55:45;;;;;;;4.18;2.97;;;18.20;97.00;;;;;;5013534;28;20184;-72
2022/10/11 09:58:33;;;;;;;7.20;3.20;;;18.20;97.20;;;;;;5013902;28;20176;-71
2022/10/11 10:01:09;;;;;;;4.53;2.78;;;18.20;97.00;;;;;;5013813;28;20184;-71
2022/10/11 10:03:38;;;;;;;2.70;2.25;;;18.20;96.90;;;;;;5014475;28;20204;-71
2022/10/11 10:06:26;;;;;;;3.97;2.70;;;18.20;97.20;;;;;;5037804;28;20180;-72
2022/10/11 10:08:52;;;;;;;3.40;2.72;;;18.20;96.90;;;;;;5015198;28;20241;-71
2022/10/11 10:11:18;;;;;;;4.00;2.90;;;18.20;97.20;;;;;;5016896;28;20183;-71
2022/10/11 10:13:56;;;;;;;3.55;2.70;;;18.20;96.90;;;;;;5032849;28;20199;-71
2022/10/11 10:16:32;;;;;;;6.75;3.25;;;18.20;96.80;;;;;;5049125;28;20682;-71
2022/10/11 10:19:03;;;;;;;4.70;3.00;;;18.20;96.90;;;;;;5020936;28;20223;-71
2022/10/11 10:21:42;;;;;;;4.75;3.10;;;18.20;96.90;;;;;;5030798;28;20184;-71
2022/10/11 10:24:31;;;;;;;4.70;3.00;;;18.20;96.80;;;;;;5007966;28;20175;-72
2022/10/11 10:27:09;;;;;;;4.93;2.85;;;18.20;98.10;;;;;;5015874;28;20202;-70
2022/10/11 10:29:35;;;;;;;3.35;2.65;;;18.30;97.30;;;;;;5014973;28;20309;-71
2022/10/11 10:32:10;;;;;;;4.70;2.90;;;18.30;97.10;;;;;;5025840;28;20283;-71
2022/10/11 10:34:49;;;;;;;3.70;2.80;;;18.20;97.90;;;;;;5023860;28;20191;-72
2022/10/11 10:37:30;;;;;;;3.22;2.47;;;18.20;97.30;;;;;;5040578;28;20176;-71
2022/10/11 10:40:04;;;;;;;4.07;2.80;;;18.30;97.30;;;;;;5006961;28;20188;-71
2022/10/11 10:42:29;;;;;;;3.92;2.78;;;18.30;97.30;;;;;;5010677;28;20208;-71
2022/10/11 10:44:57;;;;;;;5.22;2.92;;;18.30;97.10;;;;;;5028649;28;20190;-71
2022/10/11 10:48:08;;;;;;;3.03;2.72;;;18.30;97.20;;;;;;5037121;28;20196;-71
2022/10/11 10:51:26;;;;;;;4.15;3.00;;;18.30;97.70;;;;;;5009093;28;20207;-71
2022/10/11 10:54:38;;;;;;;4.32;2.97;;;18.30;97.70;;;;;;5015531;28;20577;-71
2022/10/11 10:57:22;;;;;;;3.78;3.05;;;18.30;97.40;;;;;;5031573;28;20190;-71
2022/10/11 10:59:59;;;;;;;3.20;2.60;;;18.30;97.80;;;;;;5032096;28;20183;-70
2022/10/11 11:02:53;;;;;;;5.28;3.10;;;18.30;97.30;;;;;;5015753;28;20314;-70
2022/10/11 11:05:40;;;;;;;4.35;2.80;;;18.30;97.90;;;;;;5031977;28;20179;-71
2022/10/11 11:08:15;;;;;;;5.25;2.80;;;18.30;97.70;;;;;;5031753;28;20654;-71
2022/10/11 11:11:41;;;;;;;3.17;2.30;;;18.30;97.10;;;;;;5032113;28;20245;-71
2022/10/11 11:14:44;;;;;;;2.90;2.55;;;18.30;97.40;;;;;;5031893;28;20274;-71
2022/10/11 11:17:31;;;;;;;3.45;2.65;;;18.30;97.50;;;;;;5015143;28;20197;-71
2022/10/11 11:20:34;;;;;;;5.25;3.17;;;18.30;97.10;;;;;;5015609;28;20183;-69
2022/10/11 11:23:22;;;;;;;3.75;2.65;;;18.30;97.10;;;;;;5024347;28;20231;-69
2022/10/11 11:26:42;;;;;;;4.22;2.70;;;18.30;97.10;;;;;;5018063;28;20241;-70
2022/10/11 11:29:26;;;;;;;3.67;2.35;;;18.30;97.40;;;;;;5010302;28;20223;-70
2022/10/11 11:32:09;;;;;;;4.55;2.72;;;18.30;97.40;;;;;;5032469;28;20188;-70
2022/10/11 11:35:02;;;;;;;4.25;2.90;;;18.30;97.10;;;;;;5024897;28;20619;-70
2022/10/11 11:37:37;;;;;;;4.75;2.78;;;18.30;97.30;;;;;;5011364;28;20227;-71
2022/10/11 11:40:37;;;;;;;3.97;2.85;;;18.30;97.70;;;;;;4995382;28;20164;-71
2022/10/11 11:43:26;;;;;;;4.25;2.60;;;18.30;97.40;;;;;;4995203;28;20290;-70
2022/10/11 11:46:05;;;;;;;3.65;2.40;;;18.30;97.30;;;;;;4995244;28;20274;-70
2022/10/11 11:48:31;;;;;;;4.25;2.72;;;18.30;98.10;;;;;;5012820;28;20172;-70
2022/10/11 11:51:22;;;;;;;4.93;3.13;;;18.30;97.20;;;;;;5012766;28;20215;-69
2022/10/11 11:54:31;;;;;;;3.38;2.55;;;18.30;98.10;;;;;;5012895;28;20242;-71
2022/10/11 11:57:21;;;;;;;4.55;2.80;;;18.30;97.40;;;;;;5010818;28;20168;-71
2022/10/11 12:00:03;;;;;;;3.20;2.65;;;18.30;97.30;;;;;;5031812;28;20294;-71
2022/10/11 12:02:48;;;;;;;3.55;2.90;;;18.30;97.30;;;;;;5031081;28;20214;-70
2022/10/11 12:05:22;;;;;;;4.10;2.90;;;18.30;97.60;;;;;;5014485;28;20184;-71
2022/10/11 12:08:24;;;;;;;4.00;2.45;;;18.30;97.30;;;;;;5031920;28;20183;-71
2022/10/11 12:10:50;;;;;;;5.28;3.17;;;18.30;97.60;;;;;;5047797;28;20203;-71
2022/10/11 12:13:24;;;;;;;3.03;2.72;;;18.30;97.40;;;;;;5031140;28;20210;-71
2022/10/11 12:16:04;;;;;;;3.80;2.53;;;18.30;97.30;;;;;;5014514;28;20186;-70
2022/10/11 12:18:33;;;;;;;4.40;3.15;;;18.30;97.30;;;;;;5014766;28;20189;-71
2022/10/11 12:21:15;;;;;;;3.60;2.75;;;18.30;97.40;;;;;;5031236;28;20193;-70
2022/10/11 12:23:46;;;;;;;5.75;2.78;;;18.30;97.40;;;;;;5014307;28;20280;-71
2022/10/11 12:26:27;;;;;;;3.63;2.60;;;18.30;98.20;;;;;;5021232;28;20180;-70
2022/10/11 12:29:17;;;;;;;4.53;2.97;;;18.30;97.50;;;;;;4994813;28;20187;-70
2022/10/11 12:32:37;;;;;;;4.50;2.80;;;18.30;97.50;;;;;;5011082;28;20172;-71
2022/10/11 12:35:31;;;;;;;3.78;2.55;;;18.30;97.70;;;;;;4987013;28;20196;-71
2022/10/11 12:38:21;;;;;;;3.97;3.10;;;18.30;97.90;;;;;;4994174;28;20192;-71
2022/10/11 12:40:53;;;;;;;4.82;3.05;;;18.30;97.70;;;;;;5014157;28;20267;-70
2022/10/11 12:43:26;;;;;;;5.32;3.42;;;18.30;97.70;;;;;;5035246;28;20581;-71
2022/10/11 12:45:52;;;;;;;3.30;2.67;;;18.30;97.70;;;;;;5025373;28;20184;-71
2022/10/11 12:48:37;;;;;;;3.28;2.92;;;18.30;97.80;;;;;;5010500;28;20230;-70
2022/10/11 12:51:38;;;;;;;3.85;3.15;;;18.30;97.60;;;;;;5027653;28;20195;-71
2022/10/11 12:54:37;;;;;;;8.75;3.30;;;18.30;97.70;;;;;;4994747;28;20192;-71
2022/10/11 12:57:18;;;;;;;4.75;2.80;;;18.30;98.20;;;;;;4998074;28;20177;-70
2022/10/11 12:59:45;;;;;;;5.78;3.08;;;18.30;97.70;;;;;;5014434;28;20183;-72
2022/10/11 13:02:38;;;;;;;3.83;3.08;;;18.30;97.90;;;;;;4998068;28;20204;-71
2022/10/11 13:05:23;;;;;;;3.60;3.08;;;18.30;98.00;;;;;;4998214;28;20659;-71
2022/10/11 13:07:52;;;;;;;4.40;2.90;;;18.30;97.80;;;;;;5014156;28;20184;-71
2022/10/11 13:10:37;;;;;;;6.28;3.10;;;18.30;98.10;;;;;;5014119;28;20204;-70
2022/10/11 13:13:16;;;;;;;4.25;3.30;;;18.30;98.10;;;;;;5031090;28;20238;-71
2022/10/11 13:15:43;;;;;;;5.72;3.13;;;18.30;98.40;;;;;;5014472;28;20187;-71
2022/10/11 13:18:17;;;;;;;4.43;3.08;;;18.30;98.00;;;;;;5014226;28;20187;-71
2022/10/11 13:20:43;;;;;;;3.38;3.05;;;18.30;97.90;;;;;;5014082;28;20184;-72
2022/10/11 13:23:37;;;;;;;3.85;2.60;;;18.40;98.00;;;;;;5029085;28;20219;-71